sensor_id;sensor_type;location;lat;lon;timestamp;P1;durP1;ratioP1;P2;durP2;ratioP2
27632;SDS011;15046;50.930;13.334;2023-03-07T00:02:23;29.35;;;14.43;;
27632;SDS011;15046;50.930;13.334;2023-03-07T00:04:49;32.33;;;15.90;;
27632;SDS011;15046;50.930;13.334;2023-03-07T00:07:15;29.50;;;15.25;;
27632;SDS011;15046;50.930;13.334;2023-03-07T00:09:41;31.08;;;14.50;;
27632;SDS011;15046;50.930;13.334;2023-03-07T00:12:07;30.83;;;14.13;;
27632;SDS011;15046;50.930;13.334;2023-03-07T00:14:34;27.67;;;12.85;;
27632;SDS011;15046;50.930;13.334;2023-03-07T00:17:00;30.65;;;15.65;;
27632;SDS011;15046;50.930;13.334;2023-03-07T00:19:26;28.23;;;13.70;;
27632;SDS011;15046;50.930;13.334;2023-03-07T00:21:52;24.67;;;13.25;;
27632;SDS011;15046;50.930;13.334;2023-03-07T00:24:18;25.58;;;13.23;;
27632;SDS011;15046;50.930;13.334;2023-03-07T00:26:43;29.08;;;14.32;;
27632;SDS011;15046;50.930;13.334;2023-03-07T00:29:09;31.90;;;14.38;;
27632;SDS011;15046;50.930;13.334;2023-03-07T00:31:35;28.00;;;14.07;;
27632;SDS011;15046;50.930;13.334;2023-03-07T00:34:03;28.92;;;15.00;;
27632;SDS011;15046;50.930;13.334;2023-03-07T00:36:29;28.92;;;14.43;;
27632;SDS011;15046;50.930;13.334;2023-03-07T00:38:55;30.05;;;15.27;;
27632;SDS011;15046;50.930;13.334;2023-03-07T00:41:25;28.67;;;14.05;;
27632;SDS011;15046;50.930;13.334;2023-03-07T00:43:53;27.80;;;14.68;;
27632;SDS011;15046;50.930;13.334;2023-03-07T00:46:20;31.00;;;13.02;;
27632;SDS011;15046;50.930;13.334;2023-03-07T00:48:47;28.40;;;13.90;;
27632;SDS011;15046;50.930;13.334;2023-03-07T00:51:14;32.97;;;15.80;;
27632;SDS011;15046;50.930;13.334;2023-03-07T00:53:41;32.17;;;15.35;;
27632;SDS011;15046;50.930;13.334;2023-03-07T00:56:12;30.15;;;14.40;;
27632;SDS011;15046;50.930;13.334;2023-03-07T00:58:48;27.30;;;14.30;;
27632;SDS011;15046;50.930;13.334;2023-03-07T01:01:16;29.58;;;15.15;;
27632;SDS011;15046;50.930;13.334;2023-03-07T01:03:46;27.42;;;13.90;;
27632;SDS011;15046;50.930;13.334;2023-03-07T01:06:18;33.45;;;17.02;;
27632;SDS011;15046;50.930;13.334;2023-03-07T01:08:45;26.80;;;14.45;;
27632;SDS011;15046;50.930;13.334;2023-03-07T01:11:11;34.95;;;15.40;;
27632;SDS011;15046;50.930;13.334;2023-03-07T01:13:38;29.88;;;14.77;;
27632;SDS011;15046;50.930;13.334;2023-03-07T01:18:34;31.88;;;16.23;;
27632;SDS011;15046;50.930;13.334;2023-03-07T01:21:00;30.30;;;15.00;;
27632;SDS011;15046;50.930;13.334;2023-03-07T01:23:26;28.38;;;14.35;;
27632;SDS011;15046;50.930;13.334;2023-03-07T01:25:52;29.45;;;14.20;;
27632;SDS011;15046;50.930;13.334;2023-03-07T01:28:17;29.60;;;13.77;;
27632;SDS011;15046;50.930;13.334;2023-03-07T01:30:43;32.28;;;14.88;;
27632;SDS011;15046;50.930;13.334;2023-03-07T01:33:09;32.53;;;14.80;;
27632;SDS011;15046;50.930;13.334;2023-03-07T01:35:35;30.35;;;15.32;;
27632;SDS011;15046;50.930;13.334;2023-03-07T01:38:04;29.10;;;14.57;;
27632;SDS011;15046;50.930;13.334;2023-03-07T01:40:30;29.70;;;14.65;;
27632;SDS011;15046;50.930;13.334;2023-03-07T01:43:30;34.05;;;16.67;;
27632;SDS011;15046;50.930;13.334;2023-03-07T01:48:13;38.30;;;17.52;;
27632;SDS011;15046;50.930;13.334;2023-03-07T01:50:39;35.13;;;16.40;;
27632;SDS011;15046;50.930;13.334;2023-03-07T01:53:06;32.15;;;16.48;;
27632;SDS011;15046;50.930;13.334;2023-03-07T01:55:33;34.85;;;16.20;;
27632;SDS011;15046;50.930;13.334;2023-03-07T01:58:11;29.88;;;15.50;;
27632;SDS011;15046;50.930;13.334;2023-03-07T02:00:37;34.13;;;17.33;;
27632;SDS011;15046;50.930;13.334;2023-03-07T02:05:49;34.75;;;16.52;;
27632;SDS011;15046;50.930;13.334;2023-03-07T02:08:18;31.08;;;16.58;;
27632;SDS011;15046;50.930;13.334;2023-03-07T02:10:46;34.20;;;16.73;;
27632;SDS011;15046;50.930;13.334;2023-03-07T02:13:13;34.28;;;17.27;;
27632;SDS011;15046;50.930;13.334;2023-03-07T02:15:39;34.92;;;17.40;;
27632;SDS011;15046;50.930;13.334;2023-03-07T02:18:05;32.95;;;16.00;;
27632;SDS011;15046;50.930;13.334;2023-03-07T02:26:39;32.15;;;16.55;;
27632;SDS011;15046;50.930;13.334;2023-03-07T02:29:12;35.55;;;16.48;;
27632;SDS011;15046;50.930;13.334;2023-03-07T02:31:39;31.73;;;16.02;;
27632;SDS011;15046;50.930;13.334;2023-03-07T02:36:52;28.55;;;15.63;;
27632;SDS011;15046;50.930;13.334;2023-03-07T02:39:23;27.13;;;14.00;;
27632;SDS011;15046;50.930;13.334;2023-03-07T02:41:54;25.33;;;12.60;;
27632;SDS011;15046;50.930;13.334;2023-03-07T02:44:24;27.73;;;14.07;;
27632;SDS011;15046;50.930;13.334;2023-03-07T02:46:50;28.58;;;14.52;;
27632;SDS011;15046;50.930;13.334;2023-03-07T02:49:16;27.17;;;13.77;;
27632;SDS011;15046;50.930;13.334;2023-03-07T02:51:42;27.65;;;14.07;;
27632;SDS011;15046;50.930;13.334;2023-03-07T02:54:08;26.67;;;14.23;;
27632;SDS011;15046;50.930;13.334;2023-03-07T02:56:34;28.27;;;14.27;;
27632;SDS011;15046;50.930;13.334;2023-03-07T02:59:00;26.40;;;13.77;;
27632;SDS011;15046;50.930;13.334;2023-03-07T03:01:26;25.98;;;12.23;;
27632;SDS011;15046;50.930;13.334;2023-03-07T03:03:51;25.58;;;11.95;;
27632;SDS011;15046;50.930;13.334;2023-03-07T03:06:17;22.90;;;12.23;;
27632;SDS011;15046;50.930;13.334;2023-03-07T03:08:43;27.02;;;12.27;;
27632;SDS011;15046;50.930;13.334;2023-03-07T03:11:09;25.27;;;12.95;;
27632;SDS011;15046;50.930;13.334;2023-03-07T03:13:35;25.05;;;11.38;;
27632;SDS011;15046;50.930;13.334;2023-03-07T03:16:01;23.30;;;11.48;;
27632;SDS011;15046;50.930;13.334;2023-03-07T03:18:28;24.65;;;12.27;;
27632;SDS011;15046;50.930;13.334;2023-03-07T03:20:55;23.15;;;10.70;;
27632;SDS011;15046;50.930;13.334;2023-03-07T03:23:21;23.13;;;11.73;;
27632;SDS011;15046;50.930;13.334;2023-03-07T03:25:57;23.75;;;11.70;;
27632;SDS011;15046;50.930;13.334;2023-03-07T03:28:24;28.05;;;11.57;;
27632;SDS011;15046;50.930;13.334;2023-03-07T03:30:56;22.80;;;11.10;;
27632;SDS011;15046;50.930;13.334;2023-03-07T03:33:23;23.70;;;10.52;;
27632;SDS011;15046;50.930;13.334;2023-03-07T03:35:50;24.38;;;12.18;;
27632;SDS011;15046;50.930;13.334;2023-03-07T03:38:16;22.23;;;10.65;;
27632;SDS011;15046;50.930;13.334;2023-03-07T03:40:41;22.70;;;11.55;;
27632;SDS011;15046;50.930;13.334;2023-03-07T03:43:07;20.23;;;10.02;;
27632;SDS011;15046;50.930;13.334;2023-03-07T03:45:33;23.08;;;10.95;;
27632;SDS011;15046;50.930;13.334;2023-03-07T03:47:59;21.15;;;10.85;;
27632;SDS011;15046;50.930;13.334;2023-03-07T03:50:24;22.83;;;11.25;;
27632;SDS011;15046;50.930;13.334;2023-03-07T03:52:50;22.10;;;10.18;;
27632;SDS011;15046;50.930;13.334;2023-03-07T03:55:16;21.98;;;10.10;;
27632;SDS011;15046;50.930;13.334;2023-03-07T03:57:42;19.73;;;9.25;;
27632;SDS011;15046;50.930;13.334;2023-03-07T04:00:08;20.55;;;11.10;;
27632;SDS011;15046;50.930;13.334;2023-03-07T04:02:38;18.35;;;9.25;;
27632;SDS011;15046;50.930;13.334;2023-03-07T04:05:03;21.08;;;9.20;;
27632;SDS011;15046;50.930;13.334;2023-03-07T04:07:29;15.38;;;8.10;;
27632;SDS011;15046;50.930;13.334;2023-03-07T04:09:58;20.60;;;10.55;;
27632;SDS011;15046;50.930;13.334;2023-03-07T04:12:24;21.15;;;10.50;;
27632;SDS011;15046;50.930;13.334;2023-03-07T04:14:50;17.80;;;9.55;;
27632;SDS011;15046;50.930;13.334;2023-03-07T04:17:16;19.13;;;9.27;;
27632;SDS011;15046;50.930;13.334;2023-03-07T04:19:42;18.90;;;9.48;;
27632;SDS011;15046;50.930;13.334;2023-03-07T04:22:08;23.10;;;10.32;;
27632;SDS011;15046;50.930;13.334;2023-03-07T04:24:33;20.58;;;9.40;;
27632;SDS011;15046;50.930;13.334;2023-03-07T04:26:59;20.50;;;10.60;;
27632;SDS011;15046;50.930;13.334;2023-03-07T04:29:25;19.88;;;9.88;;
27632;SDS011;15046;50.930;13.334;2023-03-07T04:31:51;19.52;;;9.80;;
27632;SDS011;15046;50.930;13.334;2023-03-07T04:34:16;21.52;;;10.45;;
27632;SDS011;15046;50.930;13.334;2023-03-07T04:36:42;20.85;;;10.50;;
27632;SDS011;15046;50.930;13.334;2023-03-07T04:39:08;20.00;;;9.93;;
27632;SDS011;15046;50.930;13.334;2023-03-07T04:41:34;23.80;;;10.95;;
27632;SDS011;15046;50.930;13.334;2023-03-07T04:43:59;21.83;;;10.20;;
27632;SDS011;15046;50.930;13.334;2023-03-07T04:46:26;22.05;;;10.38;;
27632;SDS011;15046;50.930;13.334;2023-03-07T04:48:52;21.05;;;9.82;;
27632;SDS011;15046;50.930;13.334;2023-03-07T04:51:18;24.40;;;11.20;;
27632;SDS011;15046;50.930;13.334;2023-03-07T04:53:44;21.27;;;10.52;;
27632;SDS011;15046;50.930;13.334;2023-03-07T04:56:10;23.48;;;11.13;;
27632;SDS011;15046;50.930;13.334;2023-03-07T04:58:36;22.42;;;10.60;;
27632;SDS011;15046;50.930;13.334;2023-03-07T05:01:02;20.02;;;10.02;;
27632;SDS011;15046;50.930;13.334;2023-03-07T05:03:29;20.80;;;9.93;;
27632;SDS011;15046;50.930;13.334;2023-03-07T05:05:55;22.90;;;10.95;;
27632;SDS011;15046;50.930;13.334;2023-03-07T05:08:30;22.13;;;10.50;;
27632;SDS011;15046;50.930;13.334;2023-03-07T05:10:56;22.48;;;11.13;;
27632;SDS011;15046;50.930;13.334;2023-03-07T05:13:22;23.10;;;11.73;;
27632;SDS011;15046;50.930;13.334;2023-03-07T05:15:52;22.52;;;9.68;;
27632;SDS011;15046;50.930;13.334;2023-03-07T05:18:19;22.15;;;10.85;;
27632;SDS011;15046;50.930;13.334;2023-03-07T05:20:45;20.88;;;10.45;;
27632;SDS011;15046;50.930;13.334;2023-03-07T05:23:11;22.17;;;10.90;;
27632;SDS011;15046;50.930;13.334;2023-03-07T05:25:37;21.70;;;10.95;;
27632;SDS011;15046;50.930;13.334;2023-03-07T05:28:03;21.17;;;10.23;;
27632;SDS011;15046;50.930;13.334;2023-03-07T05:30:28;18.13;;;8.90;;
27632;SDS011;15046;50.930;13.334;2023-03-07T05:32:54;19.38;;;9.90;;
27632;SDS011;15046;50.930;13.334;2023-03-07T05:35:20;21.02;;;10.50;;
27632;SDS011;15046;50.930;13.334;2023-03-07T05:37:49;20.20;;;9.48;;
27632;SDS011;15046;50.930;13.334;2023-03-07T05:40:15;22.67;;;10.23;;
27632;SDS011;15046;50.930;13.334;2023-03-07T05:42:41;25.15;;;9.95;;
27632;SDS011;15046;50.930;13.334;2023-03-07T05:45:08;20.15;;;8.85;;
27632;SDS011;15046;50.930;13.334;2023-03-07T05:47:35;21.70;;;10.77;;
27632;SDS011;15046;50.930;13.334;2023-03-07T05:50:01;20.65;;;10.70;;
27632;SDS011;15046;50.930;13.334;2023-03-07T05:52:27;20.83;;;9.70;;
27632;SDS011;15046;50.930;13.334;2023-03-07T05:54:53;22.50;;;9.52;;
27632;SDS011;15046;50.930;13.334;2023-03-07T05:57:19;20.58;;;10.13;;
27632;SDS011;15046;50.930;13.334;2023-03-07T05:59:45;18.05;;;8.85;;
27632;SDS011;15046;50.930;13.334;2023-03-07T06:02:10;17.55;;;8.75;;
27632;SDS011;15046;50.930;13.334;2023-03-07T06:04:36;18.55;;;9.30;;
27632;SDS011;15046;50.930;13.334;2023-03-07T06:07:02;18.73;;;9.20;;
27632;SDS011;15046;50.930;13.334;2023-03-07T06:09:28;18.67;;;8.50;;
27632;SDS011;15046;50.930;13.334;2023-03-07T06:11:53;16.92;;;8.32;;
27632;SDS011;15046;50.930;13.334;2023-03-07T06:14:19;16.95;;;8.43;;
27632;SDS011;15046;50.930;13.334;2023-03-07T06:16:45;16.45;;;7.82;;
27632;SDS011;15046;50.930;13.334;2023-03-07T06:19:11;17.65;;;8.38;;
27632;SDS011;15046;50.930;13.334;2023-03-07T06:21:37;16.15;;;8.20;;
27632;SDS011;15046;50.930;13.334;2023-03-07T06:24:03;19.95;;;9.25;;
27632;SDS011;15046;50.930;13.334;2023-03-07T06:26:31;18.55;;;8.35;;
27632;SDS011;15046;50.930;13.334;2023-03-07T06:28:57;20.23;;;8.23;;
27632;SDS011;15046;50.930;13.334;2023-03-07T06:31:23;18.48;;;9.43;;
27632;SDS011;15046;50.930;13.334;2023-03-07T06:33:49;19.05;;;9.07;;
27632;SDS011;15046;50.930;13.334;2023-03-07T06:36:15;15.50;;;7.70;;
27632;SDS011;15046;50.930;13.334;2023-03-07T06:38:42;17.58;;;8.98;;
27632;SDS011;15046;50.930;13.334;2023-03-07T06:41:09;16.13;;;8.38;;
27632;SDS011;15046;50.930;13.334;2023-03-07T06:43:35;16.67;;;7.18;;
27632;SDS011;15046;50.930;13.334;2023-03-07T06:46:01;14.57;;;7.68;;
27632;SDS011;15046;50.930;13.334;2023-03-07T06:48:27;16.02;;;7.97;;
27632;SDS011;15046;50.930;13.334;2023-03-07T06:50:53;16.13;;;7.10;;
27632;SDS011;15046;50.930;13.334;2023-03-07T06:53:18;15.77;;;7.43;;
27632;SDS011;15046;50.930;13.334;2023-03-07T06:55:48;14.25;;;7.90;;
27632;SDS011;15046;50.930;13.334;2023-03-07T06:58:14;13.27;;;7.30;;
27632;SDS011;15046;50.930;13.334;2023-03-07T07:00:40;13.55;;;6.30;;
27632;SDS011;15046;50.930;13.334;2023-03-07T07:03:06;14.05;;;6.95;;
27632;SDS011;15046;50.930;13.334;2023-03-07T07:05:33;13.63;;;6.95;;
27632;SDS011;15046;50.930;13.334;2023-03-07T07:07:59;12.45;;;6.60;;
27632;SDS011;15046;50.930;13.334;2023-03-07T07:10:25;12.70;;;6.05;;
27632;SDS011;15046;50.930;13.334;2023-03-07T07:12:50;12.13;;;6.40;;
27632;SDS011;15046;50.930;13.334;2023-03-07T07:15:20;14.73;;;7.13;;
27632;SDS011;15046;50.930;13.334;2023-03-07T07:17:47;13.20;;;6.22;;
27632;SDS011;15046;50.930;13.334;2023-03-07T07:20:14;11.82;;;6.03;;
27632;SDS011;15046;50.930;13.334;2023-03-07T07:22:40;13.15;;;6.53;;
27632;SDS011;15046;50.930;13.334;2023-03-07T07:25:06;12.75;;;6.25;;
27632;SDS011;15046;50.930;13.334;2023-03-07T07:27:32;14.35;;;6.75;;
27632;SDS011;15046;50.930;13.334;2023-03-07T07:29:57;15.23;;;6.40;;
27632;SDS011;15046;50.930;13.334;2023-03-07T07:32:23;13.93;;;7.28;;
27632;SDS011;15046;50.930;13.334;2023-03-07T07:34:49;11.23;;;5.80;;
27632;SDS011;15046;50.930;13.334;2023-03-07T07:37:15;12.50;;;6.30;;
27632;SDS011;15046;50.930;13.334;2023-03-07T07:39:41;12.90;;;6.57;;
27632;SDS011;15046;50.930;13.334;2023-03-07T07:42:08;13.07;;;7.10;;
27632;SDS011;15046;50.930;13.334;2023-03-07T07:44:34;12.23;;;5.55;;
27632;SDS011;15046;50.930;13.334;2023-03-07T07:47:00;12.07;;;5.90;;
27632;SDS011;15046;50.930;13.334;2023-03-07T07:49:26;11.05;;;5.30;;
27632;SDS011;15046;50.930;13.334;2023-03-07T07:51:52;12.75;;;5.25;;
27632;SDS011;15046;50.930;13.334;2023-03-07T07:54:18;13.70;;;6.38;;
27632;SDS011;15046;50.930;13.334;2023-03-07T07:56:44;11.48;;;5.88;;
27632;SDS011;15046;50.930;13.334;2023-03-07T07:59:10;11.90;;;5.97;;
27632;SDS011;15046;50.930;13.334;2023-03-07T08:01:36;10.38;;;5.35;;
27632;SDS011;15046;50.930;13.334;2023-03-07T08:04:02;10.50;;;5.03;;
27632;SDS011;15046;50.930;13.334;2023-03-07T08:06:28;12.13;;;5.47;;
27632;SDS011;15046;50.930;13.334;2023-03-07T08:08:54;12.18;;;5.63;;
27632;SDS011;15046;50.930;13.334;2023-03-07T08:11:21;9.40;;;5.15;;
27632;SDS011;15046;50.930;13.334;2023-03-07T08:13:48;8.65;;;4.18;;
27632;SDS011;15046;50.930;13.334;2023-03-07T08:16:18;10.02;;;5.45;;
27632;SDS011;15046;50.930;13.334;2023-03-07T08:18:48;8.98;;;4.47;;
27632;SDS011;15046;50.930;13.334;2023-03-07T08:21:20;8.75;;;4.68;;
27632;SDS011;15046;50.930;13.334;2023-03-07T08:23:46;9.38;;;5.13;;
27632;SDS011;15046;50.930;13.334;2023-03-07T08:26:12;9.95;;;5.00;;
27632;SDS011;15046;50.930;13.334;2023-03-07T08:28:39;7.20;;;4.22;;
27632;SDS011;15046;50.930;13.334;2023-03-07T08:31:06;9.70;;;4.82;;
27632;SDS011;15046;50.930;13.334;2023-03-07T08:33:36;10.05;;;5.22;;
27632;SDS011;15046;50.930;13.334;2023-03-07T08:36:02;10.02;;;4.75;;
27632;SDS011;15046;50.930;13.334;2023-03-07T08:38:29;8.35;;;4.68;;
27632;SDS011;15046;50.930;13.334;2023-03-07T08:40:59;9.38;;;5.07;;
27632;SDS011;15046;50.930;13.334;2023-03-07T08:43:27;8.70;;;4.85;;
27632;SDS011;15046;50.930;13.334;2023-03-07T08:45:53;8.68;;;4.00;;
27632;SDS011;15046;50.930;13.334;2023-03-07T08:48:19;8.45;;;3.97;;
27632;SDS011;15046;50.930;13.334;2023-03-07T08:50:45;8.25;;;4.57;;
27632;SDS011;15046;50.930;13.334;2023-03-07T08:53:14;7.85;;;4.03;;
27632;SDS011;15046;50.930;13.334;2023-03-07T08:55:41;7.93;;;4.80;;
27632;SDS011;15046;50.930;13.334;2023-03-07T08:58:07;6.63;;;4.15;;
27632;SDS011;15046;50.930;13.334;2023-03-07T09:00:34;8.07;;;4.38;;
27632;SDS011;15046;50.930;13.334;2023-03-07T09:03:00;8.95;;;4.95;;
27632;SDS011;15046;50.930;13.334;2023-03-07T09:05:26;9.57;;;4.70;;
27632;SDS011;15046;50.930;13.334;2023-03-07T09:07:53;8.05;;;4.82;;
27632;SDS011;15046;50.930;13.334;2023-03-07T09:10:19;9.05;;;4.60;;
27632;SDS011;15046;50.930;13.334;2023-03-07T09:12:50;9.98;;;5.20;;
27632;SDS011;15046;50.930;13.334;2023-03-07T09:15:16;9.75;;;4.70;;
27632;SDS011;15046;50.930;13.334;2023-03-07T09:17:43;9.25;;;5.35;;
27632;SDS011;15046;50.930;13.334;2023-03-07T09:20:09;10.45;;;5.10;;
27632;SDS011;15046;50.930;13.334;2023-03-07T09:22:36;9.45;;;5.10;;
27632;SDS011;15046;50.930;13.334;2023-03-07T09:25:02;8.35;;;4.95;;
27632;SDS011;15046;50.930;13.334;2023-03-07T09:27:28;11.07;;;4.88;;
27632;SDS011;15046;50.930;13.334;2023-03-07T09:29:54;9.45;;;5.28;;
27632;SDS011;15046;50.930;13.334;2023-03-07T09:32:20;8.63;;;4.88;;
27632;SDS011;15046;50.930;13.334;2023-03-07T09:34:46;9.45;;;5.18;;
27632;SDS011;15046;50.930;13.334;2023-03-07T09:37:11;10.23;;;5.40;;
27632;SDS011;15046;50.930;13.334;2023-03-07T09:39:37;10.30;;;5.05;;
27632;SDS011;15046;50.930;13.334;2023-03-07T09:50:12;9.80;;;5.30;;
27632;SDS011;15046;50.930;13.334;2023-03-07T09:52:43;11.63;;;6.90;;
27632;SDS011;15046;50.930;13.334;2023-03-07T09:55:10;10.77;;;5.72;;
27632;SDS011;15046;50.930;13.334;2023-03-07T09:57:46;10.35;;;5.90;;
27632;SDS011;15046;50.930;13.334;2023-03-07T10:02:48;9.48;;;5.35;;
27632;SDS011;15046;50.930;13.334;2023-03-07T10:05:40;9.57;;;5.63;;
27632;SDS011;15046;50.930;13.334;2023-03-07T10:08:22;11.32;;;6.18;;
27632;SDS011;15046;50.930;13.334;2023-03-07T10:13:37;10.98;;;5.25;;
27632;SDS011;15046;50.930;13.334;2023-03-07T10:16:14;9.88;;;5.72;;
27632;SDS011;15046;50.930;13.334;2023-03-07T10:27:28;10.05;;;5.57;;
27632;SDS011;15046;50.930;13.334;2023-03-07T10:29:56;9.35;;;5.15;;
27632;SDS011;15046;50.930;13.334;2023-03-07T10:32:33;10.52;;;6.07;;
27632;SDS011;15046;50.930;13.334;2023-03-07T10:40:32;10.82;;;4.85;;
27632;SDS011;15046;50.930;13.334;2023-03-07T10:43:06;11.05;;;5.88;;
27632;SDS011;15046;50.930;13.334;2023-03-07T10:48:30;10.48;;;5.93;;
27632;SDS011;15046;50.930;13.334;2023-03-07T10:51:01;10.95;;;5.45;;
27632;SDS011;15046;50.930;13.334;2023-03-07T10:53:28;12.40;;;6.47;;
27632;SDS011;15046;50.930;13.334;2023-03-07T10:56:30;10.75;;;6.00;;
27632;SDS011;15046;50.930;13.334;2023-03-07T10:59:05;11.18;;;6.82;;
27632;SDS011;15046;50.930;13.334;2023-03-07T11:01:34;12.65;;;5.72;;
27632;SDS011;15046;50.930;13.334;2023-03-07T11:04:21;10.88;;;5.57;;
27632;SDS011;15046;50.930;13.334;2023-03-07T11:09:24;9.98;;;5.40;;
27632;SDS011;15046;50.930;13.334;2023-03-07T11:14:30;12.30;;;6.45;;
27632;SDS011;15046;50.930;13.334;2023-03-07T11:17:19;11.27;;;5.28;;
27632;SDS011;15046;50.930;13.334;2023-03-07T11:20:11;11.73;;;5.93;;
27632;SDS011;15046;50.930;13.334;2023-03-07T11:22:43;11.27;;;6.00;;
27632;SDS011;15046;50.930;13.334;2023-03-07T11:25:14;9.82;;;5.75;;
27632;SDS011;15046;50.930;13.334;2023-03-07T11:30:17;10.20;;;5.25;;
27632;SDS011;15046;50.930;13.334;2023-03-07T11:32:50;10.05;;;5.30;;
27632;SDS011;15046;50.930;13.334;2023-03-07T11:35:23;10.38;;;5.82;;
27632;SDS011;15046;50.930;13.334;2023-03-07T11:46:31;11.38;;;6.70;;
27632;SDS011;15046;50.930;13.334;2023-03-07T12:01:15;9.85;;;5.60;;
27632;SDS011;15046;50.930;13.334;2023-03-07T12:23:29;11.07;;;6.22;;
27632;SDS011;15046;50.930;13.334;2023-03-07T12:26:24;9.75;;;5.70;;
27632;SDS011;15046;50.930;13.334;2023-03-07T12:31:45;14.20;;;6.70;;
27632;SDS011;15046;50.930;13.334;2023-03-07T12:34:18;11.38;;;5.60;;
27632;SDS011;15046;50.930;13.334;2023-03-07T12:36:56;13.32;;;6.03;;
27632;SDS011;15046;50.930;13.334;2023-03-07T12:39:53;9.85;;;5.50;;
27632;SDS011;15046;50.930;13.334;2023-03-07T12:45:19;12.40;;;6.45;;
27632;SDS011;15046;50.930;13.334;2023-03-07T12:47:56;9.68;;;5.18;;
27632;SDS011;15046;50.930;13.334;2023-03-07T12:58:50;9.50;;;5.22;;
27632;SDS011;15046;50.930;13.334;2023-03-07T13:04:36;11.18;;;5.70;;
27632;SDS011;15046;50.930;13.334;2023-03-07T13:09:44;10.40;;;5.95;;
27632;SDS011;15046;50.930;13.334;2023-03-07T13:14:41;9.55;;;5.53;;
27632;SDS011;15046;50.930;13.334;2023-03-07T13:17:09;9.73;;;5.43;;
27632;SDS011;15046;50.930;13.334;2023-03-07T13:24:44;9.18;;;4.60;;
27632;SDS011;15046;50.930;13.334;2023-03-07T13:27:16;12.80;;;6.30;;
27632;SDS011;15046;50.930;13.334;2023-03-07T13:49:06;8.80;;;5.25;;
27632;SDS011;15046;50.930;13.334;2023-03-07T13:51:32;10.60;;;5.03;;
27632;SDS011;15046;50.930;13.334;2023-03-07T13:54:01;11.00;;;5.65;;
27632;SDS011;15046;50.930;13.334;2023-03-07T13:56:29;14.18;;;6.68;;
27632;SDS011;15046;50.930;13.334;2023-03-07T14:04:15;10.50;;;5.85;;
27632;SDS011;15046;50.930;13.334;2023-03-07T14:06:43;12.10;;;6.75;;
27632;SDS011;15046;50.930;13.334;2023-03-07T14:09:20;13.75;;;5.97;;
27632;SDS011;15046;50.930;13.334;2023-03-07T14:14:31;10.38;;;5.15;;
27632;SDS011;15046;50.930;13.334;2023-03-07T14:20:24;11.48;;;5.72;;
27632;SDS011;15046;50.930;13.334;2023-03-07T14:23:54;11.27;;;5.57;;
27632;SDS011;15046;50.930;13.334;2023-03-07T14:26:16;11.13;;;5.43;;
27632;SDS011;15046;50.930;13.334;2023-03-07T14:29:00;8.32;;;5.20;;
27632;SDS011;15046;50.930;13.334;2023-03-07T14:31:43;13.13;;;6.47;;
27632;SDS011;15046;50.930;13.334;2023-03-07T14:37:04;11.27;;;5.65;;
27632;SDS011;15046;50.930;13.334;2023-03-07T14:50:36;7.68;;;4.32;;
27632;SDS011;15046;50.930;13.334;2023-03-07T14:55:48;8.45;;;5.15;;
27632;SDS011;15046;50.930;13.334;2023-03-07T14:58:20;7.75;;;4.30;;
27632;SDS011;15046;50.930;13.334;2023-03-07T15:00:58;7.25;;;4.28;;
27632;SDS011;15046;50.930;13.334;2023-03-07T15:03:43;7.57;;;4.35;;
27632;SDS011;15046;50.930;13.334;2023-03-07T15:06:14;9.15;;;5.10;;
27632;SDS011;15046;50.930;13.334;2023-03-07T15:08:42;8.55;;;4.82;;
27632;SDS011;15046;50.930;13.334;2023-03-07T15:21:39;8.30;;;4.40;;
27632;SDS011;15046;50.930;13.334;2023-03-07T15:24:44;11.15;;;4.13;;
27632;SDS011;15046;50.930;13.334;2023-03-07T15:27:04;9.07;;;4.40;;
27632;SDS011;15046;50.930;13.334;2023-03-07T15:29:34;7.80;;;4.13;;
27632;SDS011;15046;50.930;13.334;2023-03-07T15:32:03;11.10;;;5.18;;
27632;SDS011;15046;50.930;13.334;2023-03-07T15:34:35;9.15;;;4.45;;
27632;SDS011;15046;50.930;13.334;2023-03-07T15:48:22;10.13;;;4.65;;
27632;SDS011;15046;50.930;13.334;2023-03-07T15:50:58;8.68;;;4.00;;
27632;SDS011;15046;50.930;13.334;2023-03-07T15:53:33;8.35;;;4.63;;
27632;SDS011;15046;50.930;13.334;2023-03-07T15:56:02;7.82;;;4.30;;
27632;SDS011;15046;50.930;13.334;2023-03-07T15:58:41;7.15;;;3.97;;
27632;SDS011;15046;50.930;13.334;2023-03-07T16:01:43;9.10;;;4.53;;
27632;SDS011;15046;50.930;13.334;2023-03-07T16:04:01;6.80;;;4.13;;
27632;SDS011;15046;50.930;13.334;2023-03-07T16:06:41;8.07;;;4.50;;
27632;SDS011;15046;50.930;13.334;2023-03-07T16:09:12;7.30;;;3.58;;
27632;SDS011;15046;50.930;13.334;2023-03-07T16:11:40;8.93;;;4.63;;
27632;SDS011;15046;50.930;13.334;2023-03-07T16:16:46;10.48;;;4.03;;
27632;SDS011;15046;50.930;13.334;2023-03-07T16:19:14;9.98;;;4.78;;
27632;SDS011;15046;50.930;13.334;2023-03-07T16:21:41;7.97;;;3.42;;
27632;SDS011;15046;50.930;13.334;2023-03-07T16:24:08;9.18;;;4.57;;
27632;SDS011;15046;50.930;13.334;2023-03-07T16:26:34;8.25;;;4.35;;
27632;SDS011;15046;50.930;13.334;2023-03-07T16:29:00;7.85;;;4.32;;
27632;SDS011;15046;50.930;13.334;2023-03-07T16:31:26;8.57;;;4.28;;
27632;SDS011;15046;50.930;13.334;2023-03-07T16:33:53;9.57;;;4.70;;
27632;SDS011;15046;50.930;13.334;2023-03-07T16:36:19;8.38;;;4.78;;
27632;SDS011;15046;50.930;13.334;2023-03-07T16:38:45;7.93;;;4.18;;
27632;SDS011;15046;50.930;13.334;2023-03-07T16:41:18;11.13;;;5.00;;
27632;SDS011;15046;50.930;13.334;2023-03-07T16:43:46;8.65;;;4.55;;
27632;SDS011;15046;50.930;13.334;2023-03-07T16:46:21;8.57;;;4.43;;
27632;SDS011;15046;50.930;13.334;2023-03-07T16:48:48;9.57;;;4.15;;
27632;SDS011;15046;50.930;13.334;2023-03-07T16:53:41;8.32;;;4.32;;
27632;SDS011;15046;50.930;13.334;2023-03-07T16:56:10;8.52;;;3.80;;
27632;SDS011;15046;50.930;13.334;2023-03-07T16:58:59;8.23;;;3.80;;
27632;SDS011;15046;50.930;13.334;2023-03-07T17:01:27;9.15;;;4.72;;
27632;SDS011;15046;50.930;13.334;2023-03-07T17:03:53;9.45;;;4.80;;
27632;SDS011;15046;50.930;13.334;2023-03-07T17:06:20;7.53;;;3.92;;
27632;SDS011;15046;50.930;13.334;2023-03-07T17:08:46;8.95;;;4.20;;
27632;SDS011;15046;50.930;13.334;2023-03-07T17:11:25;7.90;;;4.30;;
27632;SDS011;15046;50.930;13.334;2023-03-07T17:13:56;6.97;;;3.78;;
27632;SDS011;15046;50.930;13.334;2023-03-07T17:16:24;7.70;;;4.13;;
27632;SDS011;15046;50.930;13.334;2023-03-07T17:18:51;10.38;;;4.40;;
27632;SDS011;15046;50.930;13.334;2023-03-07T17:21:18;10.85;;;4.80;;
27632;SDS011;15046;50.930;13.334;2023-03-07T17:23:45;12.82;;;5.20;;
27632;SDS011;15046;50.930;13.334;2023-03-07T17:26:17;10.60;;;4.70;;
27632;SDS011;15046;50.930;13.334;2023-03-07T17:28:52;13.95;;;6.35;;
27632;SDS011;15046;50.930;13.334;2023-03-07T17:31:20;9.05;;;4.47;;
27632;SDS011;15046;50.930;13.334;2023-03-07T17:33:46;11.52;;;6.35;;
27632;SDS011;15046;50.930;13.334;2023-03-07T17:36:12;9.23;;;4.95;;
27632;SDS011;15046;50.930;13.334;2023-03-07T17:38:37;8.45;;;4.55;;
27632;SDS011;15046;50.930;13.334;2023-03-07T17:41:03;8.65;;;4.55;;
27632;SDS011;15046;50.930;13.334;2023-03-07T17:43:29;9.65;;;5.20;;
27632;SDS011;15046;50.930;13.334;2023-03-07T17:45:57;7.78;;;4.35;;
27632;SDS011;15046;50.930;13.334;2023-03-07T17:48:23;9.35;;;4.88;;